sensor_id;sensor_type;location;lat;lon;timestamp;P1;durP1;ratioP1;P2;durP2;ratioP2
68455;SDS011;55437;55.046;38.838;2023-05-10T00:02:16;36.53;;;18.02;;
68455;SDS011;55437;55.046;38.838;2023-05-10T00:04:42;33.83;;;17.63;;
68455;SDS011;55437;55.046;38.838;2023-05-10T00:07:07;34.17;;;16.65;;
68455;SDS011;55437;55.046;38.838;2023-05-10T00:09:33;34.70;;;16.92;;
68455;SDS011;55437;55.046;38.838;2023-05-10T00:11:59;36.20;;;18.10;;
68455;SDS011;55437;55.046;38.838;2023-05-10T00:14:25;43.22;;;21.08;;
68455;SDS011;55437;55.046;38.838;2023-05-10T00:16:50;40.15;;;19.38;;
68455;SDS011;55437;55.046;38.838;2023-05-10T00:19:16;50.25;;;22.10;;
68455;SDS011;55437;55.046;38.838;2023-05-10T00:21:42;48.38;;;23.30;;
68455;SDS011;55437;55.046;38.838;2023-05-10T00:24:07;56.70;;;25.83;;
68455;SDS011;55437;55.046;38.838;2023-05-10T00:26:33;45.65;;;21.63;;
68455;SDS011;55437;55.046;38.838;2023-05-10T00:29:00;42.70;;;17.67;;
68455;SDS011;55437;55.046;38.838;2023-05-10T00:31:26;47.22;;;21.23;;
68455;SDS011;55437;55.046;38.838;2023-05-10T00:33:52;41.10;;;20.95;;
68455;SDS011;55437;55.046;38.838;2023-05-10T00:36:18;43.88;;;22.73;;
68455;SDS011;55437;55.046;38.838;2023-05-10T00:38:43;44.40;;;20.50;;
68455;SDS011;55437;55.046;38.838;2023-05-10T00:41:09;47.50;;;21.38;;
68455;SDS011;55437;55.046;38.838;2023-05-10T00:43:37;37.28;;;17.27;;
68455;SDS011;55437;55.046;38.838;2023-05-10T00:46:03;33.35;;;15.02;;
68455;SDS011;55437;55.046;38.838;2023-05-10T00:48:29;27.80;;;14.23;;
68455;SDS011;55437;55.046;38.838;2023-05-10T00:50:55;29.85;;;14.07;;
68455;SDS011;55437;55.046;38.838;2023-05-10T00:53:21;30.60;;;15.55;;
68455;SDS011;55437;55.046;38.838;2023-05-10T00:55:47;32.92;;;15.70;;
68455;SDS011;55437;55.046;38.838;2023-05-10T00:58:13;30.42;;;15.95;;
68455;SDS011;55437;55.046;38.838;2023-05-10T01:00:40;28.20;;;14.85;;
68455;SDS011;55437;55.046;38.838;2023-05-10T01:03:08;32.05;;;15.18;;
68455;SDS011;55437;55.046;38.838;2023-05-10T01:05:33;30.75;;;16.90;;
68455;SDS011;55437;55.046;38.838;2023-05-10T01:07:59;32.67;;;15.88;;
68455;SDS011;55437;55.046;38.838;2023-05-10T01:10:25;30.65;;;15.45;;
68455;SDS011;55437;55.046;38.838;2023-05-10T01:12:51;33.10;;;15.52;;
68455;SDS011;55437;55.046;38.838;2023-05-10T01:15:17;36.05;;;14.65;;
68455;SDS011;55437;55.046;38.838;2023-05-10T01:17:44;31.92;;;15.18;;
68455;SDS011;55437;55.046;38.838;2023-05-10T01:20:12;37.70;;;14.98;;
68455;SDS011;55437;55.046;38.838;2023-05-10T01:34:59;38.30;;;17.75;;
68455;SDS011;55437;55.046;38.838;2023-05-10T01:42:53;44.67;;;16.40;;
68455;SDS011;55437;55.046;38.838;2023-05-10T01:45:33;42.03;;;15.60;;
68455;SDS011;55437;55.046;38.838;2023-05-10T01:48:12;51.50;;;16.55;;
68455;SDS011;55437;55.046;38.838;2023-05-10T01:50:41;41.55;;;16.20;;
68455;SDS011;55437;55.046;38.838;2023-05-10T01:53:09;42.45;;;16.73;;
68455;SDS011;55437;55.046;38.838;2023-05-10T01:55:47;40.10;;;16.05;;
68455;SDS011;55437;55.046;38.838;2023-05-10T01:58:34;36.42;;;16.23;;
68455;SDS011;55437;55.046;38.838;2023-05-10T02:01:05;38.28;;;14.68;;
68455;SDS011;55437;55.046;38.838;2023-05-10T02:03:53;31.85;;;14.95;;
68455;SDS011;55437;55.046;38.838;2023-05-10T02:06:20;49.15;;;17.50;;
68455;SDS011;55437;55.046;38.838;2023-05-10T02:08:49;49.97;;;18.15;;
68455;SDS011;55437;55.046;38.838;2023-05-10T02:11:16;36.88;;;16.25;;
68455;SDS011;55437;55.046;38.838;2023-05-10T02:13:43;37.53;;;14.57;;
68455;SDS011;55437;55.046;38.838;2023-05-10T02:16:10;36.10;;;15.68;;
68455;SDS011;55437;55.046;38.838;2023-05-10T02:18:38;39.78;;;15.07;;
68455;SDS011;55437;55.046;38.838;2023-05-10T02:21:06;32.67;;;13.07;;
68455;SDS011;55437;55.046;38.838;2023-05-10T02:23:37;41.95;;;13.55;;
68455;SDS011;55437;55.046;38.838;2023-05-10T02:26:04;31.13;;;13.95;;
68455;SDS011;55437;55.046;38.838;2023-05-10T02:28:31;26.25;;;13.25;;
68455;SDS011;55437;55.046;38.838;2023-05-10T02:30:58;32.53;;;14.05;;
68455;SDS011;55437;55.046;38.838;2023-05-10T02:33:24;33.47;;;12.88;;
68455;SDS011;55437;55.046;38.838;2023-05-10T02:35:51;37.80;;;12.82;;
68455;SDS011;55437;55.046;38.838;2023-05-10T02:38:18;37.45;;;12.73;;
68455;SDS011;55437;55.046;38.838;2023-05-10T02:40:46;26.58;;;11.48;;
68455;SDS011;55437;55.046;38.838;2023-05-10T02:43:14;28.35;;;11.57;;
68455;SDS011;55437;55.046;38.838;2023-05-10T02:45:43;30.52;;;12.65;;
68455;SDS011;55437;55.046;38.838;2023-05-10T02:48:13;24.08;;;10.25;;
68455;SDS011;55437;55.046;38.838;2023-05-10T02:50:39;18.58;;;9.93;;
68455;SDS011;55437;55.046;38.838;2023-05-10T02:53:10;24.67;;;11.05;;
68455;SDS011;55437;55.046;38.838;2023-05-10T02:55:40;28.38;;;10.50;;
68455;SDS011;55437;55.046;38.838;2023-05-10T02:58:10;21.42;;;10.13;;
68455;SDS011;55437;55.046;38.838;2023-05-10T03:00:36;23.35;;;10.15;;
68455;SDS011;55437;55.046;38.838;2023-05-10T03:03:02;21.60;;;10.18;;
68455;SDS011;55437;55.046;38.838;2023-05-10T03:05:28;24.30;;;11.27;;
68455;SDS011;55437;55.046;38.838;2023-05-10T03:07:54;26.55;;;9.98;;
68455;SDS011;55437;55.046;38.838;2023-05-10T03:10:21;29.30;;;10.75;;
68455;SDS011;55437;55.046;38.838;2023-05-10T03:13:01;27.00;;;11.20;;
68455;SDS011;55437;55.046;38.838;2023-05-10T03:18:42;26.35;;;10.45;;
68455;SDS011;55437;55.046;38.838;2023-05-10T03:21:13;29.35;;;13.18;;
68455;SDS011;55437;55.046;38.838;2023-05-10T03:23:50;31.85;;;13.95;;
68455;SDS011;55437;55.046;38.838;2023-05-10T03:26:23;28.73;;;12.13;;
68455;SDS011;55437;55.046;38.838;2023-05-10T03:28:57;32.20;;;13.38;;
68455;SDS011;55437;55.046;38.838;2023-05-10T03:31:24;31.08;;;12.23;;
68455;SDS011;55437;55.046;38.838;2023-05-10T03:33:51;29.48;;;12.80;;
68455;SDS011;55437;55.046;38.838;2023-05-10T03:36:22;34.20;;;12.85;;
68455;SDS011;55437;55.046;38.838;2023-05-10T03:39:07;29.35;;;13.32;;
68455;SDS011;55437;55.046;38.838;2023-05-10T03:41:33;26.48;;;11.60;;
68455;SDS011;55437;55.046;38.838;2023-05-10T03:43:59;32.08;;;12.18;;
68455;SDS011;55437;55.046;38.838;2023-05-10T03:46:24;30.10;;;13.70;;
68455;SDS011;55437;55.046;38.838;2023-05-10T03:48:50;30.33;;;13.38;;
68455;SDS011;55437;55.046;38.838;2023-05-10T03:51:16;35.72;;;14.10;;
68455;SDS011;55437;55.046;38.838;2023-05-10T03:53:42;28.83;;;12.60;;
68455;SDS011;55437;55.046;38.838;2023-05-10T03:56:08;31.75;;;11.82;;
68455;SDS011;55437;55.046;38.838;2023-05-10T03:58:35;28.58;;;12.18;;
68455;SDS011;55437;55.046;38.838;2023-05-10T04:01:00;30.38;;;13.77;;
68455;SDS011;55437;55.046;38.838;2023-05-10T04:03:26;36.50;;;13.70;;
68455;SDS011;55437;55.046;38.838;2023-05-10T04:05:58;31.65;;;12.57;;
68455;SDS011;55437;55.046;38.838;2023-05-10T04:08:28;30.52;;;11.35;;
68455;SDS011;55437;55.046;38.838;2023-05-10T04:10:54;32.28;;;11.55;;
68455;SDS011;55437;55.046;38.838;2023-05-10T04:13:20;33.08;;;10.90;;
68455;SDS011;55437;55.046;38.838;2023-05-10T04:15:46;26.50;;;11.15;;
68455;SDS011;55437;55.046;38.838;2023-05-10T04:18:12;28.27;;;12.20;;
68455;SDS011;55437;55.046;38.838;2023-05-10T04:20:37;36.65;;;11.30;;
68455;SDS011;55437;55.046;38.838;2023-05-10T04:23:03;22.85;;;9.70;;
68455;SDS011;55437;55.046;38.838;2023-05-10T04:25:29;25.63;;;9.20;;
68455;SDS011;55437;55.046;38.838;2023-05-10T04:28:13;23.90;;;11.38;;
68455;SDS011;55437;55.046;38.838;2023-05-10T04:30:39;22.70;;;9.48;;
68455;SDS011;55437;55.046;38.838;2023-05-10T04:33:05;20.40;;;8.90;;
68455;SDS011;55437;55.046;38.838;2023-05-10T04:35:31;22.65;;;9.60;;
68455;SDS011;55437;55.046;38.838;2023-05-10T04:37:57;22.02;;;9.43;;
68455;SDS011;55437;55.046;38.838;2023-05-10T04:40:23;26.58;;;9.40;;
68455;SDS011;55437;55.046;38.838;2023-05-10T04:42:48;18.55;;;8.45;;
68455;SDS011;55437;55.046;38.838;2023-05-10T04:45:14;19.83;;;9.07;;
68455;SDS011;55437;55.046;38.838;2023-05-10T04:47:40;31.95;;;10.32;;
68455;SDS011;55437;55.046;38.838;2023-05-10T04:50:09;20.33;;;8.93;;
68455;SDS011;55437;55.046;38.838;2023-05-10T04:52:35;23.23;;;8.82;;
68455;SDS011;55437;55.046;38.838;2023-05-10T04:55:01;22.05;;;9.07;;
68455;SDS011;55437;55.046;38.838;2023-05-10T04:57:29;19.02;;;8.73;;
68455;SDS011;55437;55.046;38.838;2023-05-10T04:59:57;19.50;;;8.73;;
68455;SDS011;55437;55.046;38.838;2023-05-10T05:02:23;22.08;;;10.45;;
68455;SDS011;55437;55.046;38.838;2023-05-10T05:04:49;18.13;;;8.40;;
68455;SDS011;55437;55.046;38.838;2023-05-10T05:07:14;14.35;;;7.68;;
68455;SDS011;55437;55.046;38.838;2023-05-10T05:09:40;17.15;;;8.50;;
68455;SDS011;55437;55.046;38.838;2023-05-10T05:12:06;19.05;;;8.57;;
68455;SDS011;55437;55.046;38.838;2023-05-10T05:14:32;21.63;;;9.02;;
68455;SDS011;55437;55.046;38.838;2023-05-10T05:16:57;32.17;;;10.20;;
68455;SDS011;55437;55.046;38.838;2023-05-10T05:19:23;26.02;;;10.00;;
68455;SDS011;55437;55.046;38.838;2023-05-10T05:21:50;23.65;;;8.65;;
68455;SDS011;55437;55.046;38.838;2023-05-10T05:24:16;25.73;;;9.57;;
68455;SDS011;55437;55.046;38.838;2023-05-10T05:26:42;23.58;;;8.93;;
68455;SDS011;55437;55.046;38.838;2023-05-10T05:29:07;22.80;;;8.13;;
68455;SDS011;55437;55.046;38.838;2023-05-10T05:31:33;21.52;;;8.23;;
68455;SDS011;55437;55.046;38.838;2023-05-10T05:34:00;24.60;;;9.43;;
68455;SDS011;55437;55.046;38.838;2023-05-10T05:36:25;21.38;;;8.20;;
68455;SDS011;55437;55.046;38.838;2023-05-10T05:38:51;26.27;;;8.05;;
68455;SDS011;55437;55.046;38.838;2023-05-10T05:41:17;23.17;;;8.60;;
68455;SDS011;55437;55.046;38.838;2023-05-10T05:43:43;23.05;;;9.38;;
68455;SDS011;55437;55.046;38.838;2023-05-10T05:46:08;23.85;;;9.00;;
68455;SDS011;55437;55.046;38.838;2023-05-10T05:48:34;28.75;;;8.98;;
68455;SDS011;55437;55.046;38.838;2023-05-10T05:51:00;24.83;;;9.02;;
68455;SDS011;55437;55.046;38.838;2023-05-10T05:53:26;27.13;;;9.85;;
68455;SDS011;55437;55.046;38.838;2023-05-10T05:55:55;23.08;;;8.77;;
68455;SDS011;55437;55.046;38.838;2023-05-10T05:58:22;29.13;;;9.80;;
68455;SDS011;55437;55.046;38.838;2023-05-10T06:00:48;25.83;;;8.18;;
68455;SDS011;55437;55.046;38.838;2023-05-10T06:03:14;22.77;;;8.02;;
68455;SDS011;55437;55.046;38.838;2023-05-10T06:05:41;24.75;;;8.75;;
68455;SDS011;55437;55.046;38.838;2023-05-10T06:08:07;25.42;;;8.13;;
68455;SDS011;55437;55.046;38.838;2023-05-10T06:10:36;23.65;;;7.88;;
68455;SDS011;55437;55.046;38.838;2023-05-10T06:13:02;25.45;;;8.50;;
68455;SDS011;55437;55.046;38.838;2023-05-10T06:15:28;32.08;;;9.73;;
68455;SDS011;55437;55.046;38.838;2023-05-10T06:17:54;34.47;;;9.38;;
68455;SDS011;55437;55.046;38.838;2023-05-10T06:20:20;23.90;;;9.15;;
68455;SDS011;55437;55.046;38.838;2023-05-10T06:22:45;25.63;;;8.90;;
68455;SDS011;55437;55.046;38.838;2023-05-10T06:25:11;26.17;;;8.32;;
68455;SDS011;55437;55.046;38.838;2023-05-10T06:27:37;21.65;;;8.02;;
68455;SDS011;55437;55.046;38.838;2023-05-10T06:30:03;25.63;;;9.00;;
68455;SDS011;55437;55.046;38.838;2023-05-10T06:32:31;28.45;;;8.68;;
68455;SDS011;55437;55.046;38.838;2023-05-10T06:34:57;19.25;;;7.88;;
68455;SDS011;55437;55.046;38.838;2023-05-10T06:37:22;18.80;;;6.95;;
68455;SDS011;55437;55.046;38.838;2023-05-10T06:39:48;13.75;;;5.68;;
68455;SDS011;55437;55.046;38.838;2023-05-10T06:42:14;17.05;;;6.43;;
68455;SDS011;55437;55.046;38.838;2023-05-10T06:44:44;15.02;;;6.53;;
68455;SDS011;55437;55.046;38.838;2023-05-10T06:47:10;13.75;;;5.95;;
68455;SDS011;55437;55.046;38.838;2023-05-10T06:49:36;12.68;;;5.28;;
68455;SDS011;55437;55.046;38.838;2023-05-10T06:52:02;16.52;;;5.57;;
68455;SDS011;55437;55.046;38.838;2023-05-10T06:54:28;9.23;;;4.18;;
68455;SDS011;55437;55.046;38.838;2023-05-10T06:56:53;10.48;;;4.93;;
68455;SDS011;55437;55.046;38.838;2023-05-10T06:59:19;8.95;;;3.53;;
68455;SDS011;55437;55.046;38.838;2023-05-10T07:01:46;9.32;;;3.47;;
68455;SDS011;55437;55.046;38.838;2023-05-10T07:04:12;11.27;;;2.97;;
68455;SDS011;55437;55.046;38.838;2023-05-10T07:06:38;7.53;;;2.90;;
68455;SDS011;55437;55.046;38.838;2023-05-10T07:09:04;8.38;;;2.70;;
68455;SDS011;55437;55.046;38.838;2023-05-10T07:11:30;7.95;;;4.32;;
68455;SDS011;55437;55.046;38.838;2023-05-10T07:13:56;6.60;;;2.50;;
68455;SDS011;55437;55.046;38.838;2023-05-10T07:16:21;5.90;;;2.25;;
68455;SDS011;55437;55.046;38.838;2023-05-10T07:18:48;5.53;;;2.03;;
68455;SDS011;55437;55.046;38.838;2023-05-10T07:21:15;5.70;;;2.00;;
68455;SDS011;55437;55.046;38.838;2023-05-10T07:23:41;7.22;;;2.80;;
68455;SDS011;55437;55.046;38.838;2023-05-10T07:26:08;6.63;;;2.92;;
68455;SDS011;55437;55.046;38.838;2023-05-10T07:28:34;8.55;;;2.72;;
68455;SDS011;55437;55.046;38.838;2023-05-10T07:31:02;8.63;;;3.13;;
68455;SDS011;55437;55.046;38.838;2023-05-10T07:33:28;9.20;;;2.83;;
68455;SDS011;55437;55.046;38.838;2023-05-10T07:35:54;8.88;;;3.45;;
68455;SDS011;55437;55.046;38.838;2023-05-10T07:38:20;9.18;;;3.58;;
68455;SDS011;55437;55.046;38.838;2023-05-10T07:40:46;9.23;;;3.35;;
68455;SDS011;55437;55.046;38.838;2023-05-10T07:43:14;10.32;;;3.00;;
68455;SDS011;55437;55.046;38.838;2023-05-10T07:45:39;10.02;;;4.50;;
68455;SDS011;55437;55.046;38.838;2023-05-10T07:48:05;8.48;;;3.13;;
68455;SDS011;55437;55.046;38.838;2023-05-10T07:50:31;10.77;;;3.45;;
68455;SDS011;55437;55.046;38.838;2023-05-10T07:52:57;11.48;;;3.47;;
68455;SDS011;55437;55.046;38.838;2023-05-10T07:55:23;13.25;;;3.08;;
68455;SDS011;55437;55.046;38.838;2023-05-10T07:57:49;10.00;;;3.72;;
68455;SDS011;55437;55.046;38.838;2023-05-10T08:00:18;8.70;;;3.22;;
68455;SDS011;55437;55.046;38.838;2023-05-10T08:02:45;9.98;;;3.28;;
68455;SDS011;55437;55.046;38.838;2023-05-10T08:05:12;8.15;;;2.97;;
68455;SDS011;55437;55.046;38.838;2023-05-10T08:07:38;10.68;;;2.60;;
68455;SDS011;55437;55.046;38.838;2023-05-10T08:10:04;10.73;;;2.80;;
68455;SDS011;55437;55.046;38.838;2023-05-10T08:12:31;8.60;;;2.75;;
68455;SDS011;55437;55.046;38.838;2023-05-10T08:14:57;9.05;;;3.05;;
68455;SDS011;55437;55.046;38.838;2023-05-10T08:17:23;9.10;;;2.80;;
68455;SDS011;55437;55.046;38.838;2023-05-10T08:19:49;9.35;;;2.95;;
68455;SDS011;55437;55.046;38.838;2023-05-10T08:22:14;8.05;;;2.63;;
68455;SDS011;55437;55.046;38.838;2023-05-10T08:24:40;9.23;;;3.38;;
68455;SDS011;55437;55.046;38.838;2023-05-10T08:27:08;7.35;;;2.63;;
68455;SDS011;55437;55.046;38.838;2023-05-10T08:29:34;9.70;;;2.42;;
68455;SDS011;55437;55.046;38.838;2023-05-10T08:32:00;11.68;;;2.85;;
68455;SDS011;55437;55.046;38.838;2023-05-10T08:34:26;8.88;;;2.83;;
68455;SDS011;55437;55.046;38.838;2023-05-10T08:36:52;7.90;;;2.45;;
68455;SDS011;55437;55.046;38.838;2023-05-10T08:39:18;8.98;;;2.88;;
68455;SDS011;55437;55.046;38.838;2023-05-10T08:41:44;7.22;;;2.05;;
68455;SDS011;55437;55.046;38.838;2023-05-10T08:44:12;7.05;;;2.20;;
68455;SDS011;55437;55.046;38.838;2023-05-10T08:46:38;6.47;;;2.22;;
68455;SDS011;55437;55.046;38.838;2023-05-10T08:49:11;7.78;;;2.72;;
68455;SDS011;55437;55.046;38.838;2023-05-10T08:51:43;7.28;;;2.20;;
68455;SDS011;55437;55.046;38.838;2023-05-10T08:54:17;8.70;;;2.35;;
68455;SDS011;55437;55.046;38.838;2023-05-10T08:56:43;10.85;;;3.15;;
68455;SDS011;55437;55.046;38.838;2023-05-10T08:59:08;8.98;;;2.67;;
68455;SDS011;55437;55.046;38.838;2023-05-10T09:01:35;7.97;;;2.55;;
68455;SDS011;55437;55.046;38.838;2023-05-10T09:04:02;8.48;;;2.53;;
68455;SDS011;55437;55.046;38.838;2023-05-10T09:06:29;7.43;;;2.63;;
68455;SDS011;55437;55.046;38.838;2023-05-10T09:08:55;8.30;;;2.70;;
68455;SDS011;55437;55.046;38.838;2023-05-10T09:11:21;8.63;;;2.78;;
68455;SDS011;55437;55.046;38.838;2023-05-10T09:13:48;7.85;;;2.42;;
68455;SDS011;55437;55.046;38.838;2023-05-10T09:16:16;8.88;;;2.47;;
68455;SDS011;55437;55.046;38.838;2023-05-10T09:18:42;7.57;;;2.47;;
68455;SDS011;55437;55.046;38.838;2023-05-10T09:21:08;8.13;;;2.75;;
68455;SDS011;55437;55.046;38.838;2023-05-10T09:23:36;8.20;;;3.22;;
68455;SDS011;55437;55.046;38.838;2023-05-10T09:26:03;6.75;;;2.72;;
68455;SDS011;55437;55.046;38.838;2023-05-10T09:29:03;10.05;;;2.78;;
68455;SDS011;55437;55.046;38.838;2023-05-10T09:31:24;8.13;;;2.70;;
68455;SDS011;55437;55.046;38.838;2023-05-10T09:34:08;11.43;;;4.22;;
68455;SDS011;55437;55.046;38.838;2023-05-10T09:36:34;12.98;;;3.30;;
68455;SDS011;55437;55.046;38.838;2023-05-10T09:38:59;10.55;;;4.30;;
68455;SDS011;55437;55.046;38.838;2023-05-10T09:41:30;9.50;;;3.30;;
68455;SDS011;55437;55.046;38.838;2023-05-10T09:43:56;8.30;;;3.13;;
68455;SDS011;55437;55.046;38.838;2023-05-10T09:46:22;8.00;;;3.20;;
68455;SDS011;55437;55.046;38.838;2023-05-10T09:48:49;7.68;;;3.05;;
68455;SDS011;55437;55.046;38.838;2023-05-10T09:51:24;7.30;;;2.95;;
68455;SDS011;55437;55.046;38.838;2023-05-10T09:56:42;8.63;;;3.13;;
68455;SDS011;55437;55.046;38.838;2023-05-10T09:59:11;9.05;;;2.78;;
68455;SDS011;55437;55.046;38.838;2023-05-10T10:01:38;7.90;;;3.35;;
68455;SDS011;55437;55.046;38.838;2023-05-10T10:04:05;8.43;;;3.20;;
68455;SDS011;55437;55.046;38.838;2023-05-10T10:06:37;7.47;;;2.97;;
68455;SDS011;55437;55.046;38.838;2023-05-10T10:09:06;11.43;;;3.78;;
68455;SDS011;55437;55.046;38.838;2023-05-10T10:11:36;9.13;;;3.70;;
68455;SDS011;55437;55.046;38.838;2023-05-10T10:14:03;8.95;;;3.70;;
68455;SDS011;55437;55.046;38.838;2023-05-10T10:16:30;8.65;;;2.97;;
68455;SDS011;55437;55.046;38.838;2023-05-10T10:18:57;9.35;;;4.07;;
68455;SDS011;55437;55.046;38.838;2023-05-10T10:21:25;10.35;;;3.50;;
68455;SDS011;55437;55.046;38.838;2023-05-10T10:23:51;9.77;;;3.22;;
68455;SDS011;55437;55.046;38.838;2023-05-10T10:26:18;8.05;;;3.10;;
68455;SDS011;55437;55.046;38.838;2023-05-10T10:31:23;9.27;;;3.47;;
68455;SDS011;55437;55.046;38.838;2023-05-10T10:34:05;6.60;;;2.72;;
68455;SDS011;55437;55.046;38.838;2023-05-10T10:36:45;8.02;;;3.45;;
68455;SDS011;55437;55.046;38.838;2023-05-10T10:39:12;8.18;;;3.20;;
68455;SDS011;55437;55.046;38.838;2023-05-10T10:41:49;10.02;;;3.08;;
68455;SDS011;55437;55.046;38.838;2023-05-10T10:47:03;8.15;;;2.85;;
68455;SDS011;55437;55.046;38.838;2023-05-10T11:02:49;8.77;;;3.63;;
68455;SDS011;55437;55.046;38.838;2023-05-10T11:05:33;7.70;;;3.03;;
68455;SDS011;55437;55.046;38.838;2023-05-10T11:10:53;8.90;;;2.90;;
68455;SDS011;55437;55.046;38.838;2023-05-10T11:13:38;8.68;;;3.33;;
68455;SDS011;55437;55.046;38.838;2023-05-10T11:16:25;7.63;;;2.70;;
68455;SDS011;55437;55.046;38.838;2023-05-10T11:21:27;9.57;;;2.83;;
68455;SDS011;55437;55.046;38.838;2023-05-10T11:23:55;6.88;;;2.50;;
68455;SDS011;55437;55.046;38.838;2023-05-10T11:26:29;7.75;;;2.55;;
68455;SDS011;55437;55.046;38.838;2023-05-10T11:28:58;9.27;;;3.15;;
68455;SDS011;55437;55.046;38.838;2023-05-10T11:31:25;8.85;;;2.92;;
68455;SDS011;55437;55.046;38.838;2023-05-10T11:33:53;9.85;;;2.72;;
68455;SDS011;55437;55.046;38.838;2023-05-10T11:36:21;9.13;;;2.92;;
68455;SDS011;55437;55.046;38.838;2023-05-10T11:38:52;7.35;;;2.58;;
68455;SDS011;55437;55.046;38.838;2023-05-10T11:41:19;10.43;;;2.83;;
68455;SDS011;55437;55.046;38.838;2023-05-10T11:43:49;9.25;;;2.75;;
68455;SDS011;55437;55.046;38.838;2023-05-10T11:46:18;7.70;;;2.58;;
68455;SDS011;55437;55.046;38.838;2023-05-10T11:48:49;8.30;;;2.50;;
68455;SDS011;55437;55.046;38.838;2023-05-10T11:51:21;6.78;;;2.53;;
68455;SDS011;55437;55.046;38.838;2023-05-10T11:53:49;7.75;;;2.45;;
68455;SDS011;55437;55.046;38.838;2023-05-10T11:56:15;7.90;;;2.78;;
68455;SDS011;55437;55.046;38.838;2023-05-10T11:58:42;8.55;;;2.38;;
68455;SDS011;55437;55.046;38.838;2023-05-10T12:01:08;7.93;;;2.30;;
68455;SDS011;55437;55.046;38.838;2023-05-10T12:03:35;10.07;;;3.03;;
68455;SDS011;55437;55.046;38.838;2023-05-10T12:06:02;8.80;;;2.63;;
68455;SDS011;55437;55.046;38.838;2023-05-10T12:08:29;8.40;;;2.55;;
68455;SDS011;55437;55.046;38.838;2023-05-10T12:11:06;7.45;;;2.65;;
68455;SDS011;55437;55.046;38.838;2023-05-10T12:13:37;7.30;;;2.50;;
68455;SDS011;55437;55.046;38.838;2023-05-10T12:18:43;6.38;;;2.53;;
68455;SDS011;55437;55.046;38.838;2023-05-10T12:21:10;8.85;;;2.63;;
68455;SDS011;55437;55.046;38.838;2023-05-10T12:23:37;8.02;;;2.55;;
68455;SDS011;55437;55.046;38.838;2023-05-10T12:26:04;10.35;;;2.47;;
68455;SDS011;55437;55.046;38.838;2023-05-10T12:28:31;10.05;;;2.85;;
68455;SDS011;55437;55.046;38.838;2023-05-10T12:31:01;9.88;;;3.08;;
68455;SDS011;55437;55.046;38.838;2023-05-10T12:33:31;7.85;;;2.90;;
68455;SDS011;55437;55.046;38.838;2023-05-10T12:36:01;8.68;;;3.15;;
68455;SDS011;55437;55.046;38.838;2023-05-10T12:41:07;9.38;;;3.22;;
68455;SDS011;55437;55.046;38.838;2023-05-10T12:43:35;10.52;;;2.65;;
68455;SDS011;55437;55.046;38.838;2023-05-10T12:46:12;8.38;;;2.80;;
68455;SDS011;55437;55.046;38.838;2023-05-10T12:48:39;10.82;;;3.10;;
68455;SDS011;55437;55.046;38.838;2023-05-10T12:51:08;11.63;;;3.15;;
68455;SDS011;55437;55.046;38.838;2023-05-10T12:53:37;7.45;;;2.38;;
68455;SDS011;55437;55.046;38.838;2023-05-10T12:56:04;11.25;;;3.25;;
68455;SDS011;55437;55.046;38.838;2023-05-10T12:58:30;8.90;;;2.60;;
68455;SDS011;55437;55.046;38.838;2023-05-10T13:00:57;7.65;;;2.63;;
68455;SDS011;55437;55.046;38.838;2023-05-10T13:03:23;6.40;;;2.25;;
68455;SDS011;55437;55.046;38.838;2023-05-10T13:05:49;6.72;;;2.63;;
68455;SDS011;55437;55.046;38.838;2023-05-10T13:08:15;7.25;;;2.55;;
68455;SDS011;55437;55.046;38.838;2023-05-10T13:10:41;9.45;;;2.60;;
68455;SDS011;55437;55.046;38.838;2023-05-10T13:13:07;7.38;;;2.20;;
68455;SDS011;55437;55.046;38.838;2023-05-10T13:15:34;6.45;;;2.20;;
68455;SDS011;55437;55.046;38.838;2023-05-10T13:18:00;8.00;;;2.53;;
68455;SDS011;55437;55.046;38.838;2023-05-10T13:20:26;8.20;;;2.75;;
68455;SDS011;55437;55.046;38.838;2023-05-10T13:22:52;6.97;;;2.50;;
68455;SDS011;55437;55.046;38.838;2023-05-10T13:25:19;7.97;;;2.35;;
68455;SDS011;55437;55.046;38.838;2023-05-10T13:27:45;6.85;;;2.25;;
68455;SDS011;55437;55.046;38.838;2023-05-10T13:30:11;9.85;;;2.83;;
68455;SDS011;55437;55.046;38.838;2023-05-10T13:32:37;7.22;;;2.05;;
68455;SDS011;55437;55.046;38.838;2023-05-10T13:35:04;9.68;;;2.90;;
68455;SDS011;55437;55.046;38.838;2023-05-10T13:37:31;10.18;;;3.10;;
68455;SDS011;55437;55.046;38.838;2023-05-10T13:40:01;8.80;;;2.50;;
68455;SDS011;55437;55.046;38.838;2023-05-10T13:42:30;8.18;;;2.95;;
68455;SDS011;55437;55.046;38.838;2023-05-10T13:44:59;7.03;;;2.50;;
68455;SDS011;55437;55.046;38.838;2023-05-10T13:47:31;7.28;;;2.40;;
68455;SDS011;55437;55.046;38.838;2023-05-10T13:49:57;6.70;;;2.30;;
68455;SDS011;55437;55.046;38.838;2023-05-10T13:52:23;7.40;;;2.20;;
68455;SDS011;55437;55.046;38.838;2023-05-10T13:54:50;7.07;;;2.38;;
68455;SDS011;55437;55.046;38.838;2023-05-10T13:57:20;8.85;;;2.47;;
68455;SDS011;55437;55.046;38.838;2023-05-10T13:59:46;8.88;;;2.63;;
68455;SDS011;55437;55.046;38.838;2023-05-10T14:02:12;7.10;;;2.45;;
68455;SDS011;55437;55.046;38.838;2023-05-10T14:04:38;7.25;;;2.83;;
68455;SDS011;55437;55.046;38.838;2023-05-10T14:07:04;6.20;;;2.38;;
68455;SDS011;55437;55.046;38.838;2023-05-10T14:09:30;6.22;;;2.13;;
68455;SDS011;55437;55.046;38.838;2023-05-10T14:11:56;6.88;;;2.13;;
68455;SDS011;55437;55.046;38.838;2023-05-10T14:14:40;6.22;;;2.30;;
68455;SDS011;55437;55.046;38.838;2023-05-10T14:17:06;6.75;;;2.15;;
68455;SDS011;55437;55.046;38.838;2023-05-10T14:19:32;7.25;;;2.17;;
68455;SDS011;55437;55.046;38.838;2023-05-10T14:21:59;5.95;;;2.17;;
68455;SDS011;55437;55.046;38.838;2023-05-10T14:24:25;6.40;;;2.10;;
68455;SDS011;55437;55.046;38.838;2023-05-10T14:26:51;8.48;;;2.25;;
68455;SDS011;55437;55.046;38.838;2023-05-10T14:29:19;7.30;;;2.72;;
68455;SDS011;55437;55.046;38.838;2023-05-10T14:31:45;10.50;;;2.60;;
68455;SDS011;55437;55.046;38.838;2023-05-10T14:34:11;7.40;;;2.40;;
68455;SDS011;55437;55.046;38.838;2023-05-10T14:36:37;6.90;;;2.30;;
68455;SDS011;55437;55.046;38.838;2023-05-10T14:39:03;7.55;;;2.40;;
68455;SDS011;55437;55.046;38.838;2023-05-10T14:41:29;11.32;;;3.47;;
68455;SDS011;55437;55.046;38.838;2023-05-10T14:44:14;7.00;;;2.20;;
68455;SDS011;55437;55.046;38.838;2023-05-10T14:46:40;9.10;;;2.50;;
68455;SDS011;55437;55.046;38.838;2023-05-10T14:49:07;8.25;;;2.55;;
68455;SDS011;55437;55.046;38.838;2023-05-10T14:51:33;10.00;;;2.60;;
68455;SDS011;55437;55.046;38.838;2023-05-10T14:53:59;6.68;;;2.60;;
68455;SDS011;55437;55.046;38.838;2023-05-10T14:56:25;5.50;;;1.90;;
68455;SDS011;55437;55.046;38.838;2023-05-10T14:58:53;10.70;;;2.22;;
68455;SDS011;55437;55.046;38.838;2023-05-10T15:01:19;6.68;;;2.03;;
68455;SDS011;55437;55.046;38.838;2023-05-10T15:03:45;6.30;;;2.00;;
68455;SDS011;55437;55.046;38.838;2023-05-10T15:06:11;5.10;;;1.73;;
68455;SDS011;55437;55.046;38.838;2023-05-10T15:08:39;8.88;;;3.67;;
68455;SDS011;55437;55.046;38.838;2023-05-10T15:11:04;6.93;;;2.22;;
68455;SDS011;55437;55.046;38.838;2023-05-10T15:13:30;6.63;;;2.50;;
68455;SDS011;55437;55.046;38.838;2023-05-10T15:15:56;6.10;;;2.10;;
68455;SDS011;55437;55.046;38.838;2023-05-10T15:18:22;7.70;;;2.72;;
68455;SDS011;55437;55.046;38.838;2023-05-10T15:20:48;7.90;;;2.33;;